Time;durP1;ratioP1;P1;durP2;ratioP2;P2;SDS_P1;SDS_P2;PMS_P1;PMS_P2;Temp;Humidity;BMP_temperature;BMP_pressure;BME280_temperature;BME280_humidity;BME280_pressure;Samples;Min_cycle;Max_cycle;Signal;HPM_P1;HPM_P2
2021/05/25 00:00:57;;;;;;;6.10;3.90;;;;;;;8.54;91.66;92556.25;4976283;28;20520;-76
2021/05/25 00:03:23;;;;;;;6.85;4.28;;;;;;;8.49;91.51;92562.28;4973972;28;20051;-76
2021/05/25 00:05:49;;;;;;;7.72;4.13;;;;;;;8.49;91.73;92559.66;4991261;28;20074;-76
2021/05/25 00:08:15;;;;;;;6.25;4.13;;;;;;;8.47;91.49;92561.78;4941698;29;20047;-76
2021/05/25 00:11:04;;;;;;;6.07;3.97;;;;;;;8.54;91.86;92569.28;4971152;28;20137;-76
2021/05/25 00:13:30;;;;;;;5.93;3.70;;;;;;;8.49;91.39;92559.66;4976064;28;20067;-76
2021/05/25 00:15:55;;;;;;;5.88;3.80;;;;;;;8.44;91.39;92554.47;4976375;28;20450;-76
2021/05/25 00:18:21;;;;;;;7.45;3.97;;;;;;;8.41;91.71;92552.41;4958600;28;20051;-77
2021/05/25 00:20:48;;;;;;;5.75;3.60;;;;;;;8.38;91.91;92558.16;4958398;28;20137;-77
2021/05/25 00:23:15;;;;;;;6.45;3.80;;;;;;;8.32;91.68;92549.56;4975729;28;20042;-76
2021/05/25 00:25:41;;;;;;;5.70;3.58;;;;;;;8.25;91.90;92548.31;4975486;28;20043;-76
2021/05/25 00:28:07;;;;;;;5.75;3.60;;;;;;;8.16;91.81;92547.31;4975663;28;20047;-76
2021/05/25 00:30:32;;;;;;;5.50;3.50;;;;;;;8.10;91.87;92546.56;4972722;28;20049;-76
2021/05/25 00:32:58;;;;;;;6.03;3.78;;;;;;;8.03;91.85;92541.63;4975699;28;20030;-76
2021/05/25 00:35:26;;;;;;;5.55;3.47;;;;;;;7.92;91.71;92538.31;4970834;28;20118;-76
2021/05/25 00:37:52;;;;;;;6.85;3.30;;;;;;;7.88;91.53;92541.69;4964727;28;20123;-77
2021/05/25 00:40:17;;;;;;;6.82;3.25;;;;;;;7.81;91.65;92549.81;4985345;28;20070;-76
2021/05/25 00:42:44;;;;;;;5.53;3.38;;;;;;;7.77;92.17;92553.22;4975195;28;20098;-76
2021/05/25 00:45:12;;;;;;;8.98;4.72;;;;;;;7.71;91.83;92552.47;4954745;29;20108;-76
2021/05/25 00:47:38;;;;;;;6.53;4.57;;;;;;;7.69;92.40;92550.13;4981693;28;20077;-76
2021/05/25 00:50:11;;;;;;;5.65;4.03;;;;;;;7.66;92.28;92549.88;4939064;29;20042;-76
2021/05/25 00:52:42;;;;;;;5.63;3.90;;;;;;;7.59;92.32;92544.94;4956339;29;20047;-76
2021/05/25 00:55:10;;;;;;;6.70;4.55;;;;;;;7.57;92.63;92547.03;4951892;29;20630;-76
2021/05/25 00:57:37;;;;;;;6.38;4.55;;;;;;;7.54;92.50;92550.16;4976274;28;20126;-77
2021/05/25 01:00:05;;;;;;;9.40;4.43;;;;;;;7.53;92.83;92543.41;4957670;28;20473;-76
2021/05/25 01:02:32;;;;;;;6.20;4.05;;;;;;;7.51;92.77;92555.91;4979573;28;20047;-76
2021/05/25 01:05:00;;;;;;;5.75;3.70;;;;;;;7.50;92.40;92549.16;4955313;29;20050;-76
2021/05/25 01:07:26;;;;;;;4.93;3.25;;;;;;;7.51;92.17;92551.47;4955636;29;20051;-76
2021/05/25 01:09:54;;;;;;;5.65;2.90;;;;;;;7.55;91.73;92546.53;4954947;28;20399;-77
2021/05/25 01:12:22;;;;;;;8.45;3.50;;;;;;;7.57;92.09;92543.66;4938214;29;20051;-76
2021/05/25 01:14:53;;;;;;;6.43;3.97;;;;;;;7.62;92.53;92539.19;4938296;29;20593;-76
2021/05/25 01:17:19;;;;;;;8.15;3.85;;;;;;;7.66;93.05;92542.84;4938171;29;20087;-76
2021/05/25 01:19:45;;;;;;;5.68;3.70;;;;;;;7.68;92.38;92545.19;4938247;29;20038;-76
2021/05/25 01:22:11;;;;;;;5.68;3.60;;;;;;;7.66;92.08;92542.06;4938133;29;20191;-76
2021/05/25 01:24:36;;;;;;;5.60;3.90;;;;;;;7.66;92.02;92542.84;4937642;29;20047;-76
2021/05/25 01:27:06;;;;;;;8.40;4.30;;;;;;;7.67;92.50;92536.56;4969967;28;20062;-76
2021/05/25 01:29:34;;;;;;;12.27;4.20;;;;;;;7.68;92.18;92539.97;4954950;29;20089;-76
2021/05/25 01:31:59;;;;;;;5.90;4.00;;;;;;;7.70;92.33;92541.25;4953163;28;20142;-76
2021/05/25 01:34:25;;;;;;;8.80;4.50;;;;;;;7.76;92.52;92536.03;4954427;29;20126;-76
2021/05/25 01:36:51;;;;;;;6.53;4.30;;;;;;;7.75;92.20;92537.09;4937498;29;20489;-76
2021/05/25 01:39:16;;;;;;;8.32;4.28;;;;;;;7.78;92.40;92536.53;4954430;29;20047;-76
2021/05/25 01:41:42;;;;;;;6.97;4.20;;;;;;;7.81;92.73;92541.22;4954539;29;20035;-76
2021/05/25 01:44:08;;;;;;;6.30;4.10;;;;;;;7.85;92.58;92537.03;4954869;29;20074;-76
2021/05/25 01:46:34;;;;;;;6.32;4.10;;;;;;;7.87;92.55;92537.53;4937102;29;20035;-76
2021/05/25 01:49:00;;;;;;;6.18;4.03;;;;;;;7.89;92.69;92536.22;4954378;29;20078;-76
2021/05/25 01:51:26;;;;;;;6.20;4.15;;;;;;;7.90;92.69;92540.41;4953792;28;20182;-76
2021/05/25 01:53:51;;;;;;;5.95;3.80;;;;;;;7.93;92.42;92546.91;4954147;29;20122;-76
2021/05/25 01:56:17;;;;;;;6.35;3.55;;;;;;;7.96;92.29;92535.16;4954524;29;20035;-76
2021/05/25 01:58:43;;;;;;;7.45;3.78;;;;;;;7.98;92.02;92539.06;4954632;29;20054;-76
2021/05/25 02:01:29;;;;;;;6.32;3.67;;;;;;;8.01;92.06;92538.50;4957871;28;20172;-76
2021/05/25 02:03:55;;;;;;;6.03;3.25;;;;;;;8.03;92.29;92533.03;4941710;29;20174;-76
2021/05/25 02:06:21;;;;;;;5.97;3.17;;;;;;;8.06;91.86;92535.91;4954844;29;20050;-76
2021/05/25 02:08:46;;;;;;;4.63;3.13;;;;;;;8.08;91.71;92538.22;4936903;29;20514;-76
2021/05/25 02:11:12;;;;;;;8.27;3.45;;;;;;;8.10;91.77;92538.72;4940995;28;20073;-76
2021/05/25 02:13:39;;;;;;;5.55;3.40;;;;;;;8.09;91.92;92524.91;4973174;28;20061;-76
2021/05/25 02:16:10;;;;;;;4.78;3.00;;;;;;;8.10;91.88;92534.28;4973657;28;20074;-76
2021/05/25 02:18:42;;;;;;;5.80;2.63;;;;;;;8.10;91.59;92526.47;4973101;28;20061;-76
2021/05/25 02:21:09;;;;;;;4.18;2.80;;;;;;;8.11;91.54;92532.47;4973472;28;20102;-76
2021/05/25 02:23:35;;;;;;;4.65;2.72;;;;;;;8.10;91.70;92526.47;4987114;28;20039;-76
2021/05/25 02:26:01;;;;;;;4.63;2.90;;;;;;;8.08;91.81;92528.59;4973493;28;20524;-76
2021/05/25 02:28:26;;;;;;;7.57;4.70;;;;;;;8.03;92.29;92531.19;4943558;29;20043;-76
2021/05/25 02:30:53;;;;;;;6.22;3.20;;;;;;;8.00;91.90;92529.13;4936902;29;20525;-76
2021/05/25 02:33:20;;;;;;;4.03;2.58;;;;;;;7.94;91.80;92522.38;4980380;28;20066;-76
2021/05/25 02:35:48;;;;;;;5.15;2.78;;;;;;;7.85;91.52;92524.00;4987542;28;20043;-76
2021/05/25 02:38:15;;;;;;;8.50;2.70;;;;;;;7.76;91.51;92530.81;4972818;28;20129;-76
2021/05/25 02:40:43;;;;;;;3.95;2.50;;;;;;;7.67;91.05;92522.75;4973265;28;20047;-76
2021/05/25 02:43:09;;;;;;;6.13;2.42;;;;;;;7.58;91.49;92522.53;4977869;28;20608;-76
2021/05/25 02:45:35;;;;;;;6.35;2.35;;;;;;;7.48;91.25;92518.16;4980461;28;20046;-76
2021/05/25 02:48:02;;;;;;;4.40;2.20;;;;;;;7.41;91.35;92525.47;4991595;28;20069;-76
2021/05/25 02:50:28;;;;;;;4.05;1.90;;;;;;;7.33;91.12;92518.19;4991912;28;20046;-76
2021/05/25 02:52:55;;;;;;;3.00;1.90;;;;;;;7.27;91.04;92520.03;4971850;28;20070;-76
2021/05/25 02:55:29;;;;;;;2.88;1.80;;;;;;;7.21;91.26;92515.88;4970779;28;20511;-76
2021/05/25 02:57:55;;;;;;;4.15;2.20;;;;;;;7.16;90.91;92508.09;4956458;28;20089;-76
2021/05/25 03:03:31;;;;;;;3.45;1.90;;;;;;;7.02;91.59;92507.06;4946125;28;20051;-76
2021/05/25 03:05:56;;;;;;;4.35;1.77;;;;;;;6.98;91.48;92514.63;4935717;29;20337;-76
2021/05/25 03:08:22;;;;;;;5.05;1.90;;;;;;;6.94;91.28;92505.00;4920285;29;20063;-76
2021/05/25 03:10:49;;;;;;;4.93;1.70;;;;;;;6.91;91.51;92510.72;4952085;29;20039;-76
2021/05/25 03:13:15;;;;;;;4.10;1.67;;;;;;;6.86;91.28;92508.91;4953488;28;20398;-77
2021/05/25 03:15:49;;;;;;;3.42;1.80;;;;;;;6.83;91.43;92510.22;4950621;29;20043;-76
2021/05/25 03:18:15;;;;;;;3.25;1.63;;;;;;;6.81;91.87;92507.09;4934254;29;20054;-76
2021/05/25 03:20:44;;;;;;;4.55;1.73;;;;;;;6.78;92.01;92510.22;4937045;28;20114;-76
2021/05/25 03:23:10;;;;;;;2.78;1.67;;;;;;;6.78;91.73;92512.06;4959590;28;20042;-76
2021/05/25 03:25:36;;;;;;;3.05;1.65;;;;;;;6.75;91.44;92512.56;4959317;28;20051;-76
2021/05/25 03:28:02;;;;;;;3.58;1.70;;;;;;;6.73;91.66;92509.44;4972311;28;20047;-75
2021/05/25 03:30:28;;;;;;;3.22;1.52;;;;;;;6.73;91.78;92512.81;4955755;29;20039;-74
2021/05/25 03:32:55;;;;;;;2.90;1.40;;;;;;;6.73;91.79;92510.22;4974018;28;20050;-75
2021/05/25 03:35:22;;;;;;;2.85;1.40;;;;;;;6.73;91.04;92510.22;4948298;28;20067;-74
2021/05/25 03:37:48;;;;;;;4.60;1.60;;;;;;;6.72;90.66;92513.88;4935819;29;20122;-75
2021/05/25 03:40:15;;;;;;;2.63;1.50;;;;;;;6.71;90.57;92507.13;4939793;29;20039;-75
2021/05/25 03:42:45;;;;;;;4.40;1.40;;;;;;;6.67;90.59;92513.88;4971759;28;20047;-75
2021/05/25 03:45:11;;;;;;;2.42;1.35;;;;;;;6.64;90.82;92516.97;4972300;28;20480;-74
2021/05/25 03:47:55;;;;;;;2.58;1.55;;;;;;;6.60;90.91;92508.16;4963585;28;20109;-75
2021/05/25 03:50:22;;;;;;;5.55;1.60;;;;;;;6.58;91.00;92508.41;4940140;29;20489;-75
2021/05/25 03:52:50;;;;;;;6.22;1.42;;;;;;;6.58;91.29;92518.03;4940111;29;20031;-75
2021/05/25 04:00:54;;;;;;;2.67;1.50;;;;;;;6.54;90.94;92514.41;4950818;29;20110;-75
2021/05/25 04:09:20;;;;;;;2.78;1.60;;;;;;;6.55;91.54;92505.53;4967242;28;20524;-75
2021/05/25 04:11:46;;;;;;;5.18;1.55;;;;;;;6.55;91.16;92502.94;4974997;28;20043;-75
2021/05/25 04:14:48;;;;;;;3.20;1.83;;;;;;;6.57;90.86;92511.25;4977745;28;20091;-75
2021/05/25 04:17:14;;;;;;;3.63;1.95;;;;;;;6.60;90.74;92510.75;4992786;28;20042;-75
2021/05/25 04:19:40;;;;;;;3.90;2.00;;;;;;;6.60;90.68;92519.34;4959482;28;20035;-75
2021/05/25 04:22:05;;;;;;;4.10;1.63;;;;;;;6.61;91.19;92523.47;4939030;29;20387;-75
2021/05/25 04:24:31;;;;;;;3.10;1.80;;;;;;;6.63;91.02;92523.22;4956245;28;20038;-75
2021/05/25 04:26:56;;;;;;;9.93;2.00;;;;;;;6.66;90.76;92522.69;4956108;29;20091;-75
2021/05/25 04:29:22;;;;;;;3.83;1.88;;;;;;;6.67;90.74;92517.25;4956045;28;20039;-75
2021/05/25 04:31:48;;;;;;;4.38;2.00;;;;;;;6.71;90.96;92520.13;4998717;28;20043;-75
2021/05/25 04:34:14;;;;;;;3.17;1.92;;;;;;;6.79;91.24;92518.81;4975248;28;20402;-75
2021/05/25 04:36:40;;;;;;;3.03;1.70;;;;;;;6.87;91.14;92508.66;4938622;29;20055;-76
2021/05/25 04:39:05;;;;;;;3.10;1.80;;;;;;;6.93;90.98;92513.84;4938435;29;20059;-75
2021/05/25 04:41:33;;;;;;;3.92;1.70;;;;;;;6.97;90.90;92514.88;4957909;28;20438;-75
2021/05/25 04:43:58;;;;;;;2.80;1.60;;;;;;;7.02;90.54;92517.47;4989596;28;20085;-76
2021/05/25 04:46:25;;;;;;;7.05;1.67;;;;;;;7.08;89.94;92526.84;4955326;28;20066;-74
2021/05/25 04:48:51;;;;;;;4.10;1.88;;;;;;;7.13;90.10;92521.63;4951938;28;20150;-73
2021/05/25 04:51:17;;;;;;;2.80;1.70;;;;;;;7.18;89.83;92516.41;4965886;28;20047;-74
2021/05/25 04:53:42;;;;;;;3.88;1.90;;;;;;;7.24;89.08;92528.38;4959383;28;20067;-74
2021/05/25 04:56:10;;;;;;;6.07;1.70;;;;;;;7.29;89.27;92530.97;4970460;28;20066;-74
2021/05/25 04:58:36;;;;;;;3.70;2.17;;;;;;;7.35;89.06;92531.72;4969619;28;20414;-75
2021/05/25 05:01:01;;;;;;;3.38;2.00;;;;;;;7.41;89.12;92535.13;4972724;28;20058;-75
2021/05/25 05:03:27;;;;;;;3.55;2.10;;;;;;;7.49;89.16;92539.75;4955634;28;20454;-74
2021/05/25 05:05:54;;;;;;;4.55;2.20;;;;;;;7.55;88.96;92527.50;4974601;28;20051;-74
2021/05/25 05:08:21;;;;;;;5.63;2.10;;;;;;;7.64;88.89;92525.91;4965178;28;20460;-74
2021/05/25 05:10:47;;;;;;;5.13;2.13;;;;;;;7.71;88.59;92523.81;4969822;28;20073;-74
2021/05/25 05:13:12;;;;;;;5.85;1.90;;;;;;;7.81;88.34;92518.53;4969212;28;20131;-73
2021/05/25 05:15:38;;;;;;;4.30;2.10;;;;;;;7.90;88.25;92531.78;4993681;28;20100;-74
2021/05/25 05:18:04;;;;;;;4.22;1.98;;;;;;;8.02;88.39;92534.09;4945219;29;20047;-73
2021/05/25 05:20:30;;;;;;;3.60;2.05;;;;;;;8.43;86.70;92534.66;4969955;28;20063;-75
2021/05/25 05:22:55;;;;;;;3.58;1.90;;;;;;;8.55;86.50;92532.47;4972274;28;20093;-76
2021/05/25 05:25:21;;;;;;;5.15;1.83;;;;;;;8.60;86.11;92533.50;4954554;28;20045;-75
2021/05/25 05:28:06;;;;;;;3.90;1.90;;;;;;;8.65;85.88;92536.88;4953723;28;20515;-75
2021/05/25 05:30:32;;;;;;;4.80;2.00;;;;;;;8.66;85.90;92541.00;4977830;28;20090;-75
2021/05/25 05:32:58;;;;;;;3.70;1.85;;;;;;;8.69;85.88;92542.28;4977692;28;20429;-74
2021/05/25 05:35:23;;;;;;;3.40;2.03;;;;;;;8.83;85.61;92538.03;4956674;28;20070;-75
2021/05/25 05:37:49;;;;;;;6.90;1.90;;;;;;;9.10;84.57;92547.97;4972232;28;20094;-74
2021/05/25 05:40:15;;;;;;;3.35;1.90;;;;;;;9.32;84.58;92546.72;4971620;28;20093;-75
2021/05/25 05:42:40;;;;;;;4.43;1.73;;;;;;;9.49;83.09;92549.69;4970395;28;20043;-74
2021/05/25 05:45:06;;;;;;;7.38;3.40;;;;;;;9.63;83.53;92557.66;4959237;28;20059;-75
2021/05/25 05:47:32;;;;;;;10.45;5.57;;;;;;;9.66;85.29;92564.94;4982102;28;20521;-74
2021/05/25 05:49:57;;;;;;;5.38;3.03;;;;;;;9.82;84.45;92557.72;4977173;28;20449;-74
2021/05/25 05:52:23;;;;;;;7.70;5.53;;;;;;;10.24;84.24;92563.22;4978575;28;20038;-74
2021/05/25 05:54:49;;;;;;;8.55;5.57;;;;;;;10.20;84.90;92569.03;4981566;28;20105;-74
2021/05/25 05:57:15;;;;;;;4.80;3.20;;;;;;;10.10;84.01;92563.91;4957551;28;20054;-74
2021/05/25 05:59:41;;;;;;;5.28;3.17;;;;;;;9.99;83.07;92567.72;4987709;28;20417;-74
2021/05/25 06:02:07;;;;;;;9.20;5.45;;;;;;;10.90;83.09;92577.25;4974580;28;20039;-75
2021/05/25 06:04:32;;;;;;;6.85;4.72;;;;;;;11.95;78.65;92568.94;4977678;28;20074;-74
2021/05/25 06:06:58;;;;;;;5.45;3.70;;;;;;;11.56;78.94;92567.53;4941378;28;20081;-75
2021/05/25 06:09:24;;;;;;;5.68;3.97;;;;;;;13.40;73.71;92571.59;4953326;28;20111;-75
2021/05/25 06:11:53;;;;;;;8.50;3.10;;;;;;;17.15;59.51;92571.91;4935768;29;20051;-75
2021/05/25 06:14:18;;;;;;;7.53;3.13;;;;;;;19.85;51.71;92567.59;4921198;29;20035;-75
2021/05/25 06:16:44;;;;;;;6.78;2.53;;;;;;;21.27;46.71;92571.91;4955462;28;20658;-75
2021/05/25 06:19:10;;;;;;;5.20;2.38;;;;;;;20.67;46.74;92568.75;4951843;29;20045;-75
2021/05/25 06:21:35;;;;;;;8.45;2.90;;;;;;;20.32;49.82;92574.78;4952369;29;20058;-75
2021/05/25 06:24:01;;;;;;;6.18;2.88;;;;;;;19.08;50.89;92577.28;4952783;29;20043;-75
2021/05/25 06:26:27;;;;;;;4.43;2.75;;;;;;;18.10;54.44;92580.81;4952863;29;20047;-75
2021/05/25 06:28:52;;;;;;;10.05;3.17;;;;;;;16.49;58.94;92577.03;4935720;29;20421;-75
2021/05/25 06:31:18;;;;;;;7.40;3.03;;;;;;;13.98;69.45;92595.34;4931646;29;20104;-75
2021/05/25 06:33:43;;;;;;;4.00;2.55;;;;;;;15.42;64.86;92590.13;4925984;29;20031;-75
2021/05/25 06:36:09;;;;;;;4.43;2.55;;;;;;;16.84;60.38;92575.75;4933651;29;20055;-75
2021/05/25 06:38:35;;;;;;;6.30;2.50;;;;;;;14.82;65.80;92575.91;4933653;29;20106;-75
2021/05/25 06:41:00;;;;;;;8.65;3.00;;;;;;;13.26;73.03;92591.84;4955373;28;20040;-75
2021/05/25 06:43:26;;;;;;;8.48;3.45;;;;;;;12.48;76.96;92589.41;4933432;29;20079;-75
2021/05/25 06:45:52;;;;;;;5.25;2.20;;;;;;;12.91;73.86;92596.88;4949228;29;20046;-75
2021/05/25 06:48:18;;;;;;;6.05;2.40;;;;;;;13.83;70.23;92596.56;4952761;29;20039;-75
2021/05/25 06:50:43;;;;;;;4.72;2.22;;;;;;;14.75;68.94;92594.06;4952697;29;20402;-75
2021/05/25 06:53:10;;;;;;;6.60;2.63;;;;;;;13.22;74.72;92591.69;4952475;29;20055;-75
2021/05/25 06:55:36;;;;;;;6.38;2.63;;;;;;;12.65;75.90;92602.69;4951756;28;20055;-75
2021/05/25 06:58:01;;;;;;;4.72;2.40;;;;;;;13.38;70.93;92605.28;4952390;29;20066;-75
2021/05/25 07:00:27;;;;;;;4.72;2.63;;;;;;;13.71;68.98;92597.09;4951998;29;20039;-75
2021/05/25 07:02:52;;;;;;;6.00;2.28;;;;;;;13.54;68.84;92597.78;4935284;29;20090;-75
2021/05/25 07:05:18;;;;;;;4.38;2.17;;;;;;;13.12;73.77;92603.22;4952399;29;20558;-77
2021/05/25 07:07:44;;;;;;;3.53;1.73;;;;;;;13.48;64.35;92591.88;4952177;28;20526;-75
2021/05/25 07:10:10;;;;;;;4.95;2.20;;;;;;;12.80;75.09;92603.44;4953871;28;20051;-75
2021/05/25 07:12:35;;;;;;;4.00;2.00;;;;;;;12.36;77.75;92600.41;4959230;28;20140;-75
2021/05/25 07:15:02;;;;;;;4.78;2.00;;;;;;;12.26;79.52;92614.50;4966940;28;20122;-75
2021/05/25 07:17:28;;;;;;;6.80;2.50;;;;;;;12.11;78.31;92606.91;4971779;28;20055;-75
2021/05/25 07:19:54;;;;;;;3.50;2.03;;;;;;;11.97;78.52;92606.16;4971411;28;20039;-75
2021/05/25 07:22:21;;;;;;;5.35;2.47;;;;;;;11.99;79.10;92614.50;4971127;28;20524;-75
2021/05/25 07:24:46;;;;;;;6.15;2.35;;;;;;;12.05;78.19;92610.72;4971702;28;20543;-74
2021/05/25 07:27:13;;;;;;;3.63;2.35;;;;;;;12.72;78.38;92607.53;4971736;28;20080;-75
2021/05/25 07:29:38;;;;;;;7.88;2.38;;;;;;;12.84;77.60;92620.94;4971345;28;20047;-75
2021/05/25 07:32:04;;;;;;;6.13;2.85;;;;;;;13.36;75.60;92622.44;4971159;28;20046;-75
2021/05/25 07:34:31;;;;;;;6.13;2.60;;;;;;;12.55;76.42;92604.75;4971470;28;20469;-75
2021/05/25 07:36:56;;;;;;;5.05;2.38;;;;;;;12.62;77.48;92623.50;4971445;28;20497;-75
2021/05/25 07:39:22;;;;;;;4.65;2.30;;;;;;;12.46;78.34;92628.31;4954101;28;20038;-75
2021/05/25 07:41:48;;;;;;;5.07;2.28;;;;;;;12.17;78.24;92618.09;4971054;28;20058;-75
2021/05/25 07:44:13;;;;;;;5.95;2.60;;;;;;;12.24;77.45;92636.88;4985729;28;20101;-75
2021/05/25 07:46:39;;;;;;;5.32;1.85;;;;;;;12.13;77.94;92627.63;4971367;28;20505;-75
2021/05/25 07:49:05;;;;;;;6.50;2.10;;;;;;;12.46;75.44;92633.56;4953725;28;20043;-75
2021/05/25 07:51:31;;;;;;;3.08;1.80;;;;;;;12.09;78.19;92624.81;4971138;28;20038;-75
2021/05/25 07:53:57;;;;;;;3.40;1.73;;;;;;;12.72;74.91;92628.53;4977464;28;20055;-74
2021/05/25 07:56:23;;;;;;;3.03;1.67;;;;;;;12.68;74.29;92615.22;4962734;28;20070;-75
2021/05/25 07:58:49;;;;;;;3.83;1.90;;;;;;;12.32;76.33;92630.94;4970978;28;20047;-75
2021/05/25 08:01:14;;;;;;;4.95;2.00;;;;;;;12.59;75.98;92632.75;4969958;28;20453;-75
2021/05/25 08:03:40;;;;;;;8.23;2.10;;;;;;;13.02;75.01;92635.00;4985875;28;20062;-75
2021/05/25 08:06:06;;;;;;;6.22;1.77;;;;;;;12.71;75.44;92638.28;4985645;28;20046;-75
2021/05/25 08:08:32;;;;;;;3.08;1.95;;;;;;;12.96;75.24;92635.41;4954788;28;20063;-75
2021/05/25 08:10:59;;;;;;;4.88;1.60;;;;;;;12.69;72.59;92637.78;4974575;28;20039;-75
2021/05/25 08:13:25;;;;;;;5.95;2.03;;;;;;;12.52;74.50;92642.09;4957138;28;20065;-75
2021/05/25 08:15:53;;;;;;;7.47;1.80;;;;;;;13.07;72.89;92652.50;4956858;28;20042;-75
2021/05/25 08:20:54;;;;;;;4.78;1.42;;;;;;;13.52;71.62;92663.06;4974211;28;20051;-75
2021/05/25 08:23:20;;;;;;;3.58;1.50;;;;;;;13.38;68.06;92657.88;4956896;28;20054;-75
2021/05/25 08:25:46;;;;;;;7.57;1.80;;;;;;;13.61;67.94;92671.00;4957208;28;20541;-75
2021/05/25 08:28:13;;;;;;;2.90;1.50;;;;;;;13.89;65.47;92677.69;4937728;29;20043;-75
2021/05/25 08:30:41;;;;;;;4.28;1.73;;;;;;;13.84;65.71;92675.16;4955113;29;20059;-75
2021/05/25 08:33:08;;;;;;;2.83;1.38;;;;;;;13.95;64.31;92660.69;4953451;29;20038;-75
2021/05/25 08:35:37;;;;;;;3.72;1.25;;;;;;;14.30;53.97;92681.91;4969868;28;20418;-75
2021/05/25 08:38:08;;;;;;;2.63;1.50;;;;;;;14.82;46.74;92686.59;4940857;28;20046;-75
2021/05/25 08:40:36;;;;;;;2.15;1.10;;;;;;;14.98;48.36;92686.94;4973190;28;20053;-75
2021/05/25 08:43:04;;;;;;;2.97;1.40;;;;;;;14.89;59.49;92696.69;4974101;28;20118;-75
2021/05/25 08:45:30;;;;;;;2.35;1.30;;;;;;;14.50;61.49;92695.59;4973951;28;20501;-75
2021/05/25 08:47:57;;;;;;;1.98;1.20;;;;;;;14.59;59.81;92693.81;4973928;28;20050;-75
2021/05/25 08:50:29;;;;;;;3.47;1.42;;;;;;;14.23;59.78;92702.63;4974576;28;20034;-76
2021/05/25 08:53:00;;;;;;;2.55;1.35;;;;;;;14.75;60.08;92694.94;4986036;28;20046;-75
2021/05/25 08:55:28;;;;;;;8.13;1.45;;;;;;;13.94;59.38;92693.34;4975489;28;20041;-76
2021/05/25 08:57:55;;;;;;;2.90;1.40;;;;;;;13.41;62.60;92683.56;4957145;28;20049;-75
2021/05/25 09:00:20;;;;;;;5.18;1.55;;;;;;;14.14;62.16;92701.81;4956425;28;20501;-75
2021/05/25 09:02:46;;;;;;;2.78;1.38;;;;;;;14.28;63.55;92704.34;4956433;28;20049;-77
2021/05/25 09:05:20;;;;;;;2.30;1.27;;;;;;;14.42;60.14;92720.06;4973212;28;20049;-75
2021/05/25 09:07:51;;;;;;;5.45;1.50;;;;;;;13.99;60.63;92710.88;4967496;28;20069;-75
2021/05/25 09:10:34;;;;;;;2.40;1.40;;;;;;;13.59;58.62;92715.25;4970274;28;20109;-75
2021/05/25 09:13:01;;;;;;;2.10;1.17;;;;;;;13.60;56.68;92722.06;4973274;28;20469;-75
2021/05/25 09:15:29;;;;;;;4.75;2.45;;;;;;;13.80;60.39;92716.31;4956225;28;20042;-76
2021/05/25 09:18:17;;;;;;;2.88;1.33;;;;;;;14.56;61.45;92715.50;4955694;28;20050;-77
2021/05/25 09:20:52;;;;;;;7.10;1.40;;;;;;;15.10;60.76;92723.22;4956221;28;20535;-72
2021/05/25 09:23:43;;;;;;;3.60;1.58;;;;;;;14.94;56.55;92726.28;4956653;28;20043;-72
2021/05/25 09:26:18;;;;;;;2.85;1.55;;;;;;;14.70;54.45;92724.06;4969263;28;20520;-73
2021/05/25 09:29:03;;;;;;;3.58;1.70;;;;;;;15.25;54.25;92727.28;4956861;28;20054;-77
2021/05/25 09:31:50;;;;;;;2.60;1.30;;;;;;;15.27;50.52;92731.19;4973168;28;20055;-76
2021/05/25 09:34:16;;;;;;;2.00;1.10;;;;;;;15.98;49.82;92751.97;4939411;28;20477;-77
2021/05/25 09:37:14;;;;;;;4.38;1.30;;;;;;;15.34;25.17;92722.81;4973020;28;20477;-76
2021/05/25 09:39:40;;;;;;;2.28;1.20;;;;;;;15.95;29.73;92730.72;4950409;28;20059;-76
2021/05/25 09:42:11;;;;;;;9.98;1.35;;;;;;;16.02;27.30;92726.50;4973049;28;20111;-76
2021/05/25 09:44:37;;;;;;;3.15;1.60;;;;;;;16.53;30.21;92731.97;4972298;28;20042;-76
2021/05/25 09:47:04;;;;;;;2.47;1.17;;;;;;;16.87;27.79;92740.88;4985626;28;20499;-76
2021/05/25 09:49:31;;;;;;;1.75;1.02;;;;;;;17.03;25.55;92731.31;4972236;28;20050;-75
2021/05/25 09:52:03;;;;;;;2.28;1.10;;;;;;;17.38;28.39;92735.59;4972661;28;20094;-76
2021/05/25 09:54:29;;;;;;;2.78;1.15;;;;;;;17.32;26.37;92747.50;4955447;28;20047;-77
2021/05/25 09:57:04;;;;;;;1.75;1.00;;;;;;;16.95;21.36;92739.28;4972849;28;20489;-77
2021/05/25 09:59:31;;;;;;;4.45;1.05;;;;;;;17.19;25.55;92738.69;4972396;28;20038;-75
2021/05/25 10:02:13;;;;;;;2.90;0.90;;;;;;;17.54;28.90;92757.78;4972604;28;20115;-75
2021/05/25 10:04:56;;;;;;;2.72;1.10;;;;;;;17.67;24.81;92754.09;4954981;28;20627;-75
2021/05/25 10:07:23;;;;;;;2.25;0.95;;;;;;;17.23;23.15;92750.97;4953956;28;20055;-79
2021/05/25 10:09:52;;;;;;;1.95;0.85;;;;;;;17.50;23.13;92742.88;4935901;29;20047;-77
2021/05/25 10:12:19;;;;;;;2.35;1.00;;;;;;;17.56;24.13;92747.66;4954391;29;20138;-76
2021/05/25 10:14:44;;;;;;;3.17;1.17;;;;;;;17.60;24.80;92753.06;4969269;28;20039;-77
2021/05/25 10:17:19;;;;;;;1.38;0.70;;;;;;;17.78;21.69;92738.56;4953749;29;20074;-77
2021/05/25 10:19:46;;;;;;;2.65;1.50;;;;;;;17.39;21.52;92737.94;4954514;29;20082;-79
2021/05/25 10:22:13;;;;;;;1.13;0.90;;;;;;;16.52;17.87;92740.22;4970255;28;20050;-76
2021/05/25 10:24:40;;;;;;;3.88;1.00;;;;;;;17.44;23.53;92736.97;4937673;28;20121;-77
2021/05/25 10:30:40;;;;;;;2.25;0.82;;;;;;;18.34;20.77;92754.16;4958302;28;20047;-78
2021/05/25 10:33:06;;;;;;;1.33;0.88;;;;;;;18.21;20.56;92761.28;4957945;28;20126;-76
2021/05/25 10:36:11;;;;;;;1.23;0.70;;;;;;;17.82;22.66;92746.69;4965232;28;20058;-78
2021/05/25 10:38:42;;;;;;;0.88;0.77;;;;;;;17.62;22.00;92745.56;4949531;28;20406;-77
2021/05/25 10:41:08;;;;;;;2.40;1.20;;;;;;;17.91;21.37;92757.22;4935160;29;20078;-76
2021/05/25 10:54:48;;;;;;;;;;;;;;;17.59;23.71;92754.94;4934974;29;20521;-76
2021/05/25 10:57:49;;;;;;;1.70;1.00;;;;;;;17.84;22.98;92747.16;4949099;29;19929;-77
2021/05/25 11:00:29;;;;;;;5.55;0.98;;;;;;;18.50;22.36;92757.72;4958522;28;20138;-77
2021/05/25 11:03:00;;;;;;;1.25;0.80;;;;;;;18.62;19.32;92748.25;4952099;29;20126;-77
2021/05/25 11:05:34;;;;;;;3.45;1.17;;;;;;;18.70;18.97;92747.38;4943500;28;20031;-78
2021/05/25 11:08:14;;;;;;;1.70;0.70;;;;;;;18.40;16.75;92741.47;4958777;28;20058;-76
2021/05/25 11:10:43;;;;;;;1.98;1.00;;;;;;;18.60;19.18;92737.97;4992607;28;20420;-77
2021/05/25 11:13:17;;;;;;;2.65;1.17;;;;;;;17.99;20.12;92751.84;4975779;28;20037;-77
2021/05/25 11:16:14;;;;;;;1.48;0.82;;;;;;;17.57;16.26;92754.47;4949338;28;20081;-76
2021/05/25 11:19:04;;;;;;;3.70;0.93;;;;;;;17.55;19.28;92755.91;4978615;28;20407;-76
2021/05/25 11:25:01;;;;;;;1.58;0.80;;;;;;;17.19;19.69;92755.34;4973726;28;20093;-76
2021/05/25 11:30:31;;;;;;;1.55;1.00;;;;;;;17.01;19.94;92741.44;4988285;28;20145;-76
2021/05/25 11:32:58;;;;;;;3.40;1.00;;;;;;;17.62;24.23;92735.75;4973797;28;20125;-76
2021/05/25 11:38:50;;;;;;;4.25;1.05;;;;;;;18.15;20.86;92745.91;4988827;28;20086;-76
2021/05/25 11:45:10;;;;;;;;;;;;;;;19.35;19.73;92761.56;4978405;28;20105;-76
2021/05/25 11:47:37;;;;;;;2.85;0.90;;;;;;;19.46;19.29;92747.84;4977289;28;19918;-76
2021/05/25 11:50:03;;;;;;;1.45;0.80;;;;;;;18.81;17.45;92751.16;4992468;28;20129;-76
2021/05/25 11:56:26;;;;;;;;;;;;;;;17.68;19.04;92741.63;4978224;28;20199;-76
2021/05/25 11:58:56;;;;;;;1.85;0.90;;;;;;;17.61;22.14;92755.38;4959918;28;19969;-76
2021/05/25 12:04:45;;;;;;;2.92;1.30;;;;;;;18.87;19.96;92739.25;4955144;29;20051;-77
2021/05/25 12:09:44;;;;;;;1.50;0.80;;;;;;;19.50;20.20;92752.16;4938051;29;20510;-77
2021/05/25 12:12:10;;;;;;;3.90;1.40;;;;;;;19.58;18.98;92766.38;4971808;28;20051;-77
2021/05/25 12:14:35;;;;;;;2.50;1.20;;;;;;;19.48;18.49;92766.88;4922321;28;20047;-78
2021/05/25 12:17:05;;;;;;;3.63;1.00;;;;;;;19.89;18.16;92770.34;4971402;28;20054;-79
2021/05/25 12:19:31;;;;;;;1.48;0.80;;;;;;;19.10;17.91;92752.84;4955380;29;20059;-77
2021/05/25 12:22:03;;;;;;;2.85;1.10;;;;;;;18.92;21.94;92757.59;4971343;28;20090;-77
2021/05/25 12:24:30;;;;;;;2.83;1.00;;;;;;;19.38;22.84;92746.06;4973111;28;20471;-76
2021/05/25 12:26:57;;;;;;;3.42;1.08;;;;;;;19.32;19.55;92748.97;4957308;29;20402;-76
2021/05/25 12:29:42;;;;;;;2.15;0.98;;;;;;;19.38;21.57;92754.81;4957693;29;20050;-76
2021/05/25 12:32:09;;;;;;;2.17;0.98;;;;;;;19.76;20.56;92758.97;4940277;29;20043;-77
2021/05/25 12:34:34;;;;;;;1.58;0.95;;;;;;;19.91;19.03;92757.50;4957134;29;20031;-77
2021/05/25 12:37:00;;;;;;;1.60;0.80;;;;;;;20.05;19.25;92751.78;4956397;29;20070;-78
2021/05/25 12:39:39;;;;;;;1.77;0.70;;;;;;;20.00;17.29;92755.47;4956616;29;20089;-78